sensor_id;sensor_type;location;lat;lon;timestamp;P1;durP1;ratioP1;P2;durP2;ratioP2
69678;SDS011;56915;52.046;4.854;2022-12-29T00:02:13;3.30;;;1.55;;
69678;SDS011;56915;52.046;4.854;2022-12-29T00:04:40;3.08;;;1.52;;
69678;SDS011;56915;52.046;4.854;2022-12-29T00:07:07;3.08;;;1.60;;
69678;SDS011;56915;52.046;4.854;2022-12-29T00:09:35;3.80;;;1.60;;
69678;SDS011;56915;52.046;4.854;2022-12-29T00:12:02;3.90;;;1.80;;
69678;SDS011;56915;52.046;4.854;2022-12-29T00:14:30;2.00;;;1.52;;
69678;SDS011;56915;52.046;4.854;2022-12-29T00:17:15;2.42;;;1.40;;
69678;SDS011;56915;52.046;4.854;2022-12-29T00:19:43;1.90;;;1.30;;
69678;SDS011;56915;52.046;4.854;2022-12-29T00:22:28;2.65;;;1.58;;
69678;SDS011;56915;52.046;4.854;2022-12-29T00:25:13;2.83;;;1.50;;
69678;SDS011;56915;52.046;4.854;2022-12-29T00:27:59;2.97;;;1.60;;
69678;SDS011;56915;52.046;4.854;2022-12-29T00:30:44;2.17;;;1.70;;
69678;SDS011;56915;52.046;4.854;2022-12-29T00:33:30;5.43;;;1.90;;
69678;SDS011;56915;52.046;4.854;2022-12-29T00:36:18;3.70;;;1.88;;
69678;SDS011;56915;52.046;4.854;2022-12-29T00:39:03;3.07;;;1.87;;
69678;SDS011;56915;52.046;4.854;2022-12-29T00:41:54;4.63;;;1.80;;
69678;SDS011;56915;52.046;4.854;2022-12-29T00:44:39;3.97;;;1.40;;
69678;SDS011;56915;52.046;4.854;2022-12-29T00:47:06;3.88;;;1.50;;
69678;SDS011;56915;52.046;4.854;2022-12-29T00:49:33;3.30;;;1.50;;
69678;SDS011;56915;52.046;4.854;2022-12-29T00:54:29;3.17;;;1.50;;
69678;SDS011;56915;52.046;4.854;2022-12-29T00:56:58;2.33;;;1.52;;
69678;SDS011;56915;52.046;4.854;2022-12-29T00:59:25;2.95;;;1.08;;
69678;SDS011;56915;52.046;4.854;2022-12-29T01:01:52;1.95;;;0.98;;
69678;SDS011;56915;52.046;4.854;2022-12-29T01:04:21;4.00;;;1.37;;
69678;SDS011;56915;52.046;4.854;2022-12-29T01:06:48;2.90;;;1.23;;
69678;SDS011;56915;52.046;4.854;2022-12-29T01:09:15;1.63;;;1.10;;
69678;SDS011;56915;52.046;4.854;2022-12-29T01:12:02;2.78;;;1.30;;
69678;SDS011;56915;52.046;4.854;2022-12-29T01:14:30;2.88;;;1.00;;
69678;SDS011;56915;52.046;4.854;2022-12-29T01:16:56;2.67;;;1.30;;
69678;SDS011;56915;52.046;4.854;2022-12-29T01:19:24;2.25;;;1.00;;
69678;SDS011;56915;52.046;4.854;2022-12-29T01:21:51;2.20;;;1.10;;
69678;SDS011;56915;52.046;4.854;2022-12-29T01:24:19;1.40;;;1.00;;
69678;SDS011;56915;52.046;4.854;2022-12-29T01:26:47;1.98;;;1.00;;
69678;SDS011;56915;52.046;4.854;2022-12-29T01:29:14;2.00;;;1.00;;
69678;SDS011;56915;52.046;4.854;2022-12-29T01:31:42;1.35;;;0.77;;
69678;SDS011;56915;52.046;4.854;2022-12-29T01:34:09;2.45;;;1.13;;
69678;SDS011;56915;52.046;4.854;2022-12-29T01:36:36;2.13;;;1.10;;
69678;SDS011;56915;52.046;4.854;2022-12-29T01:39:02;2.67;;;1.10;;
69678;SDS011;56915;52.046;4.854;2022-12-29T01:41:29;2.00;;;1.40;;
69678;SDS011;56915;52.046;4.854;2022-12-29T01:43:58;3.40;;;1.10;;
69678;SDS011;56915;52.046;4.854;2022-12-29T01:46:36;2.42;;;1.40;;
69678;SDS011;56915;52.046;4.854;2022-12-29T01:49:16;1.70;;;1.08;;
69678;SDS011;56915;52.046;4.854;2022-12-29T01:52:00;2.40;;;1.10;;
69678;SDS011;56915;52.046;4.854;2022-12-29T01:54:31;1.67;;;1.23;;
69678;SDS011;56915;52.046;4.854;2022-12-29T01:57:03;3.45;;;1.02;;
69678;SDS011;56915;52.046;4.854;2022-12-29T01:59:34;2.28;;;0.93;;
69678;SDS011;56915;52.046;4.854;2022-12-29T02:02:06;2.05;;;1.00;;
69678;SDS011;56915;52.046;4.854;2022-12-29T02:04:34;1.40;;;0.80;;
69678;SDS011;56915;52.046;4.854;2022-12-29T02:07:08;2.17;;;1.20;;
69678;SDS011;56915;52.046;4.854;2022-12-29T02:09:39;2.80;;;1.33;;
69678;SDS011;56915;52.046;4.854;2022-12-29T02:12:07;2.47;;;0.90;;
69678;SDS011;56915;52.046;4.854;2022-12-29T02:14:34;2.35;;;1.00;;
69678;SDS011;56915;52.046;4.854;2022-12-29T02:23:47;3.78;;;0.90;;
69678;SDS011;56915;52.046;4.854;2022-12-29T02:31:56;3.92;;;0.80;;
69678;SDS011;56915;52.046;4.854;2022-12-29T02:34:36;3.23;;;0.70;;
69678;SDS011;56915;52.046;4.854;2022-12-29T02:37:22;1.98;;;0.50;;
69678;SDS011;56915;52.046;4.854;2022-12-29T02:45:19;1.42;;;0.40;;
69678;SDS011;56915;52.046;4.854;2022-12-29T02:50:44;4.93;;;0.60;;
69678;SDS011;56915;52.046;4.854;2022-12-29T02:53:19;2.22;;;0.43;;
69678;SDS011;56915;52.046;4.854;2022-12-29T02:56:08;5.15;;;0.50;;
69678;SDS011;56915;52.046;4.854;2022-12-29T02:58:35;3.78;;;0.50;;
69678;SDS011;56915;52.046;4.854;2022-12-29T03:09:52;2.92;;;0.52;;
69678;SDS011;56915;52.046;4.854;2022-12-29T03:12:42;3.83;;;0.50;;
69678;SDS011;56915;52.046;4.854;2022-12-29T03:23:43;5.15;;;0.60;;
69678;SDS011;56915;52.046;4.854;2022-12-29T03:26:16;2.95;;;0.40;;
69678;SDS011;56915;52.046;4.854;2022-12-29T03:28:46;2.07;;;0.40;;
69678;SDS011;56915;52.046;4.854;2022-12-29T03:31:17;3.00;;;0.30;;
69678;SDS011;56915;52.046;4.854;2022-12-29T03:33:46;3.05;;;0.55;;
69678;SDS011;56915;52.046;4.854;2022-12-29T03:36:20;4.95;;;0.60;;
69678;SDS011;56915;52.046;4.854;2022-12-29T03:39:10;3.17;;;0.52;;
69678;SDS011;56915;52.046;4.854;2022-12-29T03:41:39;2.70;;;0.60;;
69678;SDS011;56915;52.046;4.854;2022-12-29T03:44:09;2.53;;;1.15;;
69678;SDS011;56915;52.046;4.854;2022-12-29T03:46:36;4.07;;;0.50;;
69678;SDS011;56915;52.046;4.854;2022-12-29T03:49:03;4.85;;;0.70;;
69678;SDS011;56915;52.046;4.854;2022-12-29T03:51:30;4.45;;;0.68;;
69678;SDS011;56915;52.046;4.854;2022-12-29T03:53:57;1.60;;;0.60;;
69678;SDS011;56915;52.046;4.854;2022-12-29T03:56:24;3.40;;;0.60;;
69678;SDS011;56915;52.046;4.854;2022-12-29T03:58:50;1.33;;;0.50;;
69678;SDS011;56915;52.046;4.854;2022-12-29T04:01:17;5.03;;;0.70;;
69678;SDS011;56915;52.046;4.854;2022-12-29T04:03:44;1.60;;;0.60;;
69678;SDS011;56915;52.046;4.854;2022-12-29T04:06:11;4.43;;;0.60;;
69678;SDS011;56915;52.046;4.854;2022-12-29T04:08:38;4.45;;;0.98;;
69678;SDS011;56915;52.046;4.854;2022-12-29T04:11:05;3.35;;;0.75;;
69678;SDS011;56915;52.046;4.854;2022-12-29T04:13:32;3.75;;;0.60;;
69678;SDS011;56915;52.046;4.854;2022-12-29T04:15:59;4.45;;;0.60;;
69678;SDS011;56915;52.046;4.854;2022-12-29T04:18:26;8.10;;;1.07;;
69678;SDS011;56915;52.046;4.854;2022-12-29T04:20:53;4.25;;;0.60;;
69678;SDS011;56915;52.046;4.854;2022-12-29T04:23:30;2.70;;;0.40;;
69678;SDS011;56915;52.046;4.854;2022-12-29T04:25:58;5.63;;;0.70;;
69678;SDS011;56915;52.046;4.854;2022-12-29T04:28:25;5.05;;;0.50;;
69678;SDS011;56915;52.046;4.854;2022-12-29T04:30:53;5.37;;;0.90;;
69678;SDS011;56915;52.046;4.854;2022-12-29T04:33:20;6.32;;;0.60;;
69678;SDS011;56915;52.046;4.854;2022-12-29T04:35:48;5.57;;;0.60;;
69678;SDS011;56915;52.046;4.854;2022-12-29T04:38:15;6.68;;;0.60;;
69678;SDS011;56915;52.046;4.854;2022-12-29T04:40:43;5.13;;;1.02;;
69678;SDS011;56915;52.046;4.854;2022-12-29T04:43:11;8.30;;;0.80;;
69678;SDS011;56915;52.046;4.854;2022-12-29T04:45:45;3.65;;;0.50;;
69678;SDS011;56915;52.046;4.854;2022-12-29T04:48:13;5.47;;;0.80;;
69678;SDS011;56915;52.046;4.854;2022-12-29T04:50:40;3.38;;;0.60;;
69678;SDS011;56915;52.046;4.854;2022-12-29T04:53:08;6.05;;;0.60;;
69678;SDS011;56915;52.046;4.854;2022-12-29T04:55:35;6.33;;;0.70;;
69678;SDS011;56915;52.046;4.854;2022-12-29T04:58:02;6.57;;;0.75;;
69678;SDS011;56915;52.046;4.854;2022-12-29T05:00:28;8.13;;;0.73;;
69678;SDS011;56915;52.046;4.854;2022-12-29T05:02:55;5.90;;;0.75;;
69678;SDS011;56915;52.046;4.854;2022-12-29T05:05:22;10.18;;;0.93;;
69678;SDS011;56915;52.046;4.854;2022-12-29T05:07:49;6.70;;;0.60;;
69678;SDS011;56915;52.046;4.854;2022-12-29T05:10:16;6.93;;;0.80;;
69678;SDS011;56915;52.046;4.854;2022-12-29T05:12:43;5.32;;;0.50;;
69678;SDS011;56915;52.046;4.854;2022-12-29T05:15:10;4.00;;;0.85;;
69678;SDS011;56915;52.046;4.854;2022-12-29T05:17:37;7.95;;;0.80;;
69678;SDS011;56915;52.046;4.854;2022-12-29T05:20:05;8.27;;;1.03;;
69678;SDS011;56915;52.046;4.854;2022-12-29T05:22:32;5.35;;;0.57;;
69678;SDS011;56915;52.046;4.854;2022-12-29T05:24:59;7.10;;;0.88;;
69678;SDS011;56915;52.046;4.854;2022-12-29T05:27:26;6.90;;;0.80;;
69678;SDS011;56915;52.046;4.854;2022-12-29T05:29:53;6.38;;;1.05;;
69678;SDS011;56915;52.046;4.854;2022-12-29T05:32:19;6.57;;;0.80;;
69678;SDS011;56915;52.046;4.854;2022-12-29T05:34:46;6.38;;;0.60;;
69678;SDS011;56915;52.046;4.854;2022-12-29T05:37:13;11.60;;;1.00;;
69678;SDS011;56915;52.046;4.854;2022-12-29T05:39:40;13.45;;;1.05;;
69678;SDS011;56915;52.046;4.854;2022-12-29T05:42:07;13.40;;;0.95;;
69678;SDS011;56915;52.046;4.854;2022-12-29T05:44:34;6.63;;;0.60;;
69678;SDS011;56915;52.046;4.854;2022-12-29T05:47:00;8.68;;;1.05;;
69678;SDS011;56915;52.046;4.854;2022-12-29T05:49:28;6.93;;;0.70;;
69678;SDS011;56915;52.046;4.854;2022-12-29T05:51:54;11.23;;;0.98;;
69678;SDS011;56915;52.046;4.854;2022-12-29T05:54:21;6.05;;;0.75;;
69678;SDS011;56915;52.046;4.854;2022-12-29T05:56:48;9.90;;;1.00;;
69678;SDS011;56915;52.046;4.854;2022-12-29T05:59:15;12.00;;;0.93;;
69678;SDS011;56915;52.046;4.854;2022-12-29T06:01:42;9.05;;;0.90;;
69678;SDS011;56915;52.046;4.854;2022-12-29T06:04:09;12.32;;;1.33;;
69678;SDS011;56915;52.046;4.854;2022-12-29T06:06:35;6.70;;;0.77;;
69678;SDS011;56915;52.046;4.854;2022-12-29T06:09:02;9.27;;;1.03;;
69678;SDS011;56915;52.046;4.854;2022-12-29T06:11:29;7.43;;;0.80;;
69678;SDS011;56915;52.046;4.854;2022-12-29T06:13:56;8.30;;;0.80;;
69678;SDS011;56915;52.046;4.854;2022-12-29T06:16:23;10.43;;;0.90;;
69678;SDS011;56915;52.046;4.854;2022-12-29T06:18:49;7.55;;;0.90;;
69678;SDS011;56915;52.046;4.854;2022-12-29T06:21:16;9.07;;;0.90;;
69678;SDS011;56915;52.046;4.854;2022-12-29T06:23:43;7.32;;;0.73;;
69678;SDS011;56915;52.046;4.854;2022-12-29T06:26:10;10.52;;;0.90;;
69678;SDS011;56915;52.046;4.854;2022-12-29T06:28:36;8.40;;;0.80;;
69678;SDS011;56915;52.046;4.854;2022-12-29T06:31:03;6.95;;;0.77;;
69678;SDS011;56915;52.046;4.854;2022-12-29T06:33:30;9.37;;;0.63;;
69678;SDS011;56915;52.046;4.854;2022-12-29T06:35:57;7.53;;;0.80;;
69678;SDS011;56915;52.046;4.854;2022-12-29T06:38:24;9.40;;;0.98;;
69678;SDS011;56915;52.046;4.854;2022-12-29T06:40:50;7.68;;;0.88;;
69678;SDS011;56915;52.046;4.854;2022-12-29T06:43:17;8.50;;;1.20;;
69678;SDS011;56915;52.046;4.854;2022-12-29T06:45:44;7.73;;;0.80;;
69678;SDS011;56915;52.046;4.854;2022-12-29T06:48:11;12.52;;;1.13;;
69678;SDS011;56915;52.046;4.854;2022-12-29T06:50:39;8.00;;;0.80;;
69678;SDS011;56915;52.046;4.854;2022-12-29T06:53:05;6.05;;;0.95;;
69678;SDS011;56915;52.046;4.854;2022-12-29T06:55:32;6.68;;;1.10;;
69678;SDS011;56915;52.046;4.854;2022-12-29T06:57:59;6.97;;;0.80;;
69678;SDS011;56915;52.046;4.854;2022-12-29T07:00:27;8.00;;;0.77;;
69678;SDS011;56915;52.046;4.854;2022-12-29T07:02:54;8.25;;;0.70;;
69678;SDS011;56915;52.046;4.854;2022-12-29T07:05:22;7.03;;;0.70;;
69678;SDS011;56915;52.046;4.854;2022-12-29T07:07:49;7.22;;;0.98;;
69678;SDS011;56915;52.046;4.854;2022-12-29T07:10:16;7.00;;;0.73;;
69678;SDS011;56915;52.046;4.854;2022-12-29T07:12:43;6.43;;;0.77;;
69678;SDS011;56915;52.046;4.854;2022-12-29T07:15:09;8.77;;;0.80;;
69678;SDS011;56915;52.046;4.854;2022-12-29T07:17:36;8.43;;;0.82;;
69678;SDS011;56915;52.046;4.854;2022-12-29T07:20:03;7.45;;;1.08;;
69678;SDS011;56915;52.046;4.854;2022-12-29T07:22:31;6.27;;;0.77;;
69678;SDS011;56915;52.046;4.854;2022-12-29T07:24:57;3.65;;;0.65;;
69678;SDS011;56915;52.046;4.854;2022-12-29T07:27:24;7.28;;;1.20;;
69678;SDS011;56915;52.046;4.854;2022-12-29T07:29:51;8.55;;;0.90;;
69678;SDS011;56915;52.046;4.854;2022-12-29T07:32:18;6.97;;;1.05;;
69678;SDS011;56915;52.046;4.854;2022-12-29T07:34:44;4.87;;;0.63;;
69678;SDS011;56915;52.046;4.854;2022-12-29T07:37:16;8.57;;;1.20;;
69678;SDS011;56915;52.046;4.854;2022-12-29T07:39:43;6.22;;;1.13;;
69678;SDS011;56915;52.046;4.854;2022-12-29T07:42:10;7.18;;;1.05;;
69678;SDS011;56915;52.046;4.854;2022-12-29T07:44:37;10.60;;;0.90;;
69678;SDS011;56915;52.046;4.854;2022-12-29T07:47:04;8.57;;;1.00;;
69678;SDS011;56915;52.046;4.854;2022-12-29T07:49:31;5.32;;;1.05;;
69678;SDS011;56915;52.046;4.854;2022-12-29T07:51:58;12.20;;;0.90;;
69678;SDS011;56915;52.046;4.854;2022-12-29T07:54:24;6.78;;;0.60;;
69678;SDS011;56915;52.046;4.854;2022-12-29T07:56:51;7.88;;;0.82;;
69678;SDS011;56915;52.046;4.854;2022-12-29T07:59:18;8.37;;;0.93;;
69678;SDS011;56915;52.046;4.854;2022-12-29T08:01:45;6.28;;;0.80;;
69678;SDS011;56915;52.046;4.854;2022-12-29T08:04:12;7.38;;;0.98;;
69678;SDS011;56915;52.046;4.854;2022-12-29T08:06:38;9.27;;;0.98;;
69678;SDS011;56915;52.046;4.854;2022-12-29T08:09:05;9.57;;;1.30;;
69678;SDS011;56915;52.046;4.854;2022-12-29T08:11:41;8.53;;;1.10;;
69678;SDS011;56915;52.046;4.854;2022-12-29T08:14:09;6.68;;;1.15;;
69678;SDS011;56915;52.046;4.854;2022-12-29T08:16:36;9.25;;;1.33;;
69678;SDS011;56915;52.046;4.854;2022-12-29T08:19:03;9.18;;;1.10;;
69678;SDS011;56915;52.046;4.854;2022-12-29T08:21:31;4.75;;;1.02;;
69678;SDS011;56915;52.046;4.854;2022-12-29T08:23:58;9.97;;;1.47;;
69678;SDS011;56915;52.046;4.854;2022-12-29T08:26:25;8.40;;;1.17;;
69678;SDS011;56915;52.046;4.854;2022-12-29T08:28:52;11.07;;;1.27;;
69678;SDS011;56915;52.046;4.854;2022-12-29T08:31:21;5.72;;;0.82;;
69678;SDS011;56915;52.046;4.854;2022-12-29T08:33:50;9.50;;;1.98;;
69678;SDS011;56915;52.046;4.854;2022-12-29T08:36:17;5.87;;;0.93;;
69678;SDS011;56915;52.046;4.854;2022-12-29T08:38:43;8.60;;;1.17;;
69678;SDS011;56915;52.046;4.854;2022-12-29T08:41:10;5.63;;;0.70;;
69678;SDS011;56915;52.046;4.854;2022-12-29T08:43:37;8.05;;;1.10;;
69678;SDS011;56915;52.046;4.854;2022-12-29T08:46:04;7.18;;;0.90;;
69678;SDS011;56915;52.046;4.854;2022-12-29T08:48:31;6.90;;;0.80;;
69678;SDS011;56915;52.046;4.854;2022-12-29T08:50:58;10.80;;;1.20;;
69678;SDS011;56915;52.046;4.854;2022-12-29T08:53:24;9.60;;;1.05;;
69678;SDS011;56915;52.046;4.854;2022-12-29T08:55:56;5.45;;;0.75;;
69678;SDS011;56915;52.046;4.854;2022-12-29T08:58:30;8.30;;;1.20;;
69678;SDS011;56915;52.046;4.854;2022-12-29T09:00:58;8.60;;;1.20;;
69678;SDS011;56915;52.046;4.854;2022-12-29T09:03:25;10.80;;;1.00;;
69678;SDS011;56915;52.046;4.854;2022-12-29T09:06:13;6.72;;;0.88;;
69678;SDS011;56915;52.046;4.854;2022-12-29T09:08:41;11.40;;;1.27;;
69678;SDS011;56915;52.046;4.854;2022-12-29T09:13:38;8.20;;;0.73;;
69678;SDS011;56915;52.046;4.854;2022-12-29T09:16:04;6.93;;;1.02;;
69678;SDS011;56915;52.046;4.854;2022-12-29T09:18:32;9.15;;;1.13;;
69678;SDS011;56915;52.046;4.854;2022-12-29T09:21:00;7.47;;;1.00;;
69678;SDS011;56915;52.046;4.854;2022-12-29T09:23:28;11.07;;;1.30;;
69678;SDS011;56915;52.046;4.854;2022-12-29T09:25:55;8.67;;;1.20;;
69678;SDS011;56915;52.046;4.854;2022-12-29T09:28:21;5.25;;;0.98;;
69678;SDS011;56915;52.046;4.854;2022-12-29T09:30:49;11.02;;;1.20;;
69678;SDS011;56915;52.046;4.854;2022-12-29T09:33:16;7.07;;;1.00;;
69678;SDS011;56915;52.046;4.854;2022-12-29T09:35:44;8.70;;;1.40;;
69678;SDS011;56915;52.046;4.854;2022-12-29T09:38:16;3.23;;;0.90;;
69678;SDS011;56915;52.046;4.854;2022-12-29T09:40:44;10.40;;;0.80;;
69678;SDS011;56915;52.046;4.854;2022-12-29T09:46:29;6.50;;;0.73;;
69678;SDS011;56915;52.046;4.854;2022-12-29T09:51:56;4.30;;;0.70;;
69678;SDS011;56915;52.046;4.854;2022-12-29T10:00:05;7.10;;;1.00;;
69678;SDS011;56915;52.046;4.854;2022-12-29T10:02:46;3.38;;;0.70;;
69678;SDS011;56915;52.046;4.854;2022-12-29T10:06:11;7.37;;;0.90;;
69678;SDS011;56915;52.046;4.854;2022-12-29T10:14:38;6.85;;;1.30;;
69678;SDS011;56915;52.046;4.854;2022-12-29T10:25:46;9.65;;;2.38;;
69678;SDS011;56915;52.046;4.854;2022-12-29T10:30:49;7.68;;;1.55;;
69678;SDS011;56915;52.046;4.854;2022-12-29T10:33:19;12.23;;;1.90;;
69678;SDS011;56915;52.046;4.854;2022-12-29T10:35:50;12.38;;;1.80;;
69678;SDS011;56915;52.046;4.854;2022-12-29T10:41:00;8.98;;;1.95;;
69678;SDS011;56915;52.046;4.854;2022-12-29T10:43:43;13.27;;;1.85;;
69678;SDS011;56915;52.046;4.854;2022-12-29T10:46:14;9.40;;;2.27;;
69678;SDS011;56915;52.046;4.854;2022-12-29T10:48:45;13.63;;;2.63;;
69678;SDS011;56915;52.046;4.854;2022-12-29T10:51:22;14.15;;;1.95;;
69678;SDS011;56915;52.046;4.854;2022-12-29T10:53:57;12.20;;;1.65;;
69678;SDS011;56915;52.046;4.854;2022-12-29T10:56:35;12.43;;;2.10;;
69678;SDS011;56915;52.046;4.854;2022-12-29T10:59:13;11.20;;;2.20;;
69678;SDS011;56915;52.046;4.854;2022-12-29T11:01:58;10.48;;;1.80;;
69678;SDS011;56915;52.046;4.854;2022-12-29T11:07:02;14.35;;;2.10;;
69678;SDS011;56915;52.046;4.854;2022-12-29T11:09:38;13.07;;;1.55;;
69678;SDS011;56915;52.046;4.854;2022-12-29T11:14:45;13.88;;;2.05;;
69678;SDS011;56915;52.046;4.854;2022-12-29T11:17:16;13.15;;;1.48;;
69678;SDS011;56915;52.046;4.854;2022-12-29T11:19:44;21.25;;;2.08;;
69678;SDS011;56915;52.046;4.854;2022-12-29T11:22:12;9.77;;;1.52;;
69678;SDS011;56915;52.046;4.854;2022-12-29T11:24:46;13.50;;;1.90;;
69678;SDS011;56915;52.046;4.854;2022-12-29T11:27:15;14.98;;;1.65;;
69678;SDS011;56915;52.046;4.854;2022-12-29T11:29:52;22.73;;;2.70;;
69678;SDS011;56915;52.046;4.854;2022-12-29T11:32:21;16.15;;;1.95;;
69678;SDS011;56915;52.046;4.854;2022-12-29T11:34:54;16.77;;;2.00;;
69678;SDS011;56915;52.046;4.854;2022-12-29T11:37:36;17.07;;;1.80;;
69678;SDS011;56915;52.046;4.854;2022-12-29T11:40:18;13.35;;;1.98;;
69678;SDS011;56915;52.046;4.854;2022-12-29T11:42:57;15.57;;;2.10;;
69678;SDS011;56915;52.046;4.854;2022-12-29T11:45:33;17.42;;;1.88;;
69678;SDS011;56915;52.046;4.854;2022-12-29T11:48:14;15.00;;;1.90;;
69678;SDS011;56915;52.046;4.854;2022-12-29T11:50:48;11.63;;;1.90;;
69678;SDS011;56915;52.046;4.854;2022-12-29T11:53:23;13.63;;;1.88;;
69678;SDS011;56915;52.046;4.854;2022-12-29T11:55:59;11.55;;;1.73;;
69678;SDS011;56915;52.046;4.854;2022-12-29T11:58:32;8.15;;;1.42;;
69678;SDS011;56915;52.046;4.854;2022-12-29T12:04:05;10.23;;;1.70;;
69678;SDS011;56915;52.046;4.854;2022-12-29T12:06:43;10.55;;;1.38;;
69678;SDS011;56915;52.046;4.854;2022-12-29T12:09:16;12.85;;;2.15;;
69678;SDS011;56915;52.046;4.854;2022-12-29T12:11:55;11.75;;;1.50;;
69678;SDS011;56915;52.046;4.854;2022-12-29T12:14:25;16.92;;;1.90;;
69678;SDS011;56915;52.046;4.854;2022-12-29T12:17:02;15.50;;;1.90;;
69678;SDS011;56915;52.046;4.854;2022-12-29T12:24:52;13.82;;;1.60;;
69678;SDS011;56915;52.046;4.854;2022-12-29T12:41:13;3.53;;;0.85;;
69678;SDS011;56915;52.046;4.854;2022-12-29T12:43:56;12.57;;;1.17;;
69678;SDS011;56915;52.046;4.854;2022-12-29T12:46:36;8.35;;;1.10;;
69678;SDS011;56915;52.046;4.854;2022-12-29T12:58:00;11.10;;;1.30;;
69678;SDS011;56915;52.046;4.854;2022-12-29T13:09:23;9.40;;;1.23;;
69678;SDS011;56915;52.046;4.854;2022-12-29T13:11:58;6.70;;;0.97;;
69678;SDS011;56915;52.046;4.854;2022-12-29T13:17:48;9.05;;;1.30;;
69678;SDS011;56915;52.046;4.854;2022-12-29T13:23:37;8.68;;;1.10;;
69678;SDS011;56915;52.046;4.854;2022-12-29T13:26:21;12.47;;;1.20;;
69678;SDS011;56915;52.046;4.854;2022-12-29T13:29:18;9.82;;;1.27;;
69678;SDS011;56915;52.046;4.854;2022-12-29T13:31:57;8.27;;;1.20;;
69678;SDS011;56915;52.046;4.854;2022-12-29T13:37:18;9.57;;;1.25;;
69678;SDS011;56915;52.046;4.854;2022-12-29T13:40:00;13.43;;;1.67;;
69678;SDS011;56915;52.046;4.854;2022-12-29T13:42:31;11.32;;;1.60;;
69678;SDS011;56915;52.046;4.854;2022-12-29T13:44:59;13.60;;;2.55;;
69678;SDS011;56915;52.046;4.854;2022-12-29T13:47:33;14.10;;;1.77;;
69678;SDS011;56915;52.046;4.854;2022-12-29T13:50:11;10.93;;;1.80;;
69678;SDS011;56915;52.046;4.854;2022-12-29T13:52:47;4.37;;;1.00;;
69678;SDS011;56915;52.046;4.854;2022-12-29T13:56:03;5.00;;;0.90;;
69678;SDS011;56915;52.046;4.854;2022-12-29T13:58:43;3.90;;;0.60;;
69678;SDS011;56915;52.046;4.854;2022-12-29T14:01:24;4.93;;;1.02;;
69678;SDS011;56915;52.046;4.854;2022-12-29T14:03:55;5.03;;;1.10;;
69678;SDS011;56915;52.046;4.854;2022-12-29T14:11:44;6.75;;;1.00;;
69678;SDS011;56915;52.046;4.854;2022-12-29T14:14:12;5.50;;;1.02;;
69678;SDS011;56915;52.046;4.854;2022-12-29T14:16:45;4.93;;;0.80;;
69678;SDS011;56915;52.046;4.854;2022-12-29T14:19:16;4.00;;;0.70;;
69678;SDS011;56915;52.046;4.854;2022-12-29T14:22:00;5.70;;;0.70;;
69678;SDS011;56915;52.046;4.854;2022-12-29T14:34:52;4.25;;;1.10;;
69678;SDS011;56915;52.046;4.854;2022-12-29T14:37:24;8.23;;;1.38;;
69678;SDS011;56915;52.046;4.854;2022-12-29T14:42:29;8.88;;;1.15;;
69678;SDS011;56915;52.046;4.854;2022-12-29T14:45:01;10.33;;;1.43;;
69678;SDS011;56915;52.046;4.854;2022-12-29T14:47:37;6.90;;;1.33;;
69678;SDS011;56915;52.046;4.854;2022-12-29T14:50:11;6.07;;;0.70;;
69678;SDS011;56915;52.046;4.854;2022-12-29T14:52:46;11.57;;;1.15;;
69678;SDS011;56915;52.046;4.854;2022-12-29T14:58:02;8.60;;;1.20;;
69678;SDS011;56915;52.046;4.854;2022-12-29T15:00:38;11.32;;;1.20;;
69678;SDS011;56915;52.046;4.854;2022-12-29T15:05:46;8.45;;;1.33;;
69678;SDS011;56915;52.046;4.854;2022-12-29T15:08:18;6.93;;;1.00;;
69678;SDS011;56915;52.046;4.854;2022-12-29T15:11:12;10.20;;;1.20;;
69678;SDS011;56915;52.046;4.854;2022-12-29T15:13:40;5.15;;;0.82;;
69678;SDS011;56915;52.046;4.854;2022-12-29T15:18:56;10.02;;;1.77;;
69678;SDS011;56915;52.046;4.854;2022-12-29T15:21:24;5.68;;;1.00;;
69678;SDS011;56915;52.046;4.854;2022-12-29T15:23:53;9.33;;;1.50;;
69678;SDS011;56915;52.046;4.854;2022-12-29T15:26:20;9.63;;;2.17;;
69678;SDS011;56915;52.046;4.854;2022-12-29T15:28:51;10.18;;;2.55;;
69678;SDS011;56915;52.046;4.854;2022-12-29T15:31:23;10.85;;;2.00;;
69678;SDS011;56915;52.046;4.854;2022-12-29T15:34:01;11.00;;;2.10;;
69678;SDS011;56915;52.046;4.854;2022-12-29T15:36:37;6.87;;;1.60;;
69678;SDS011;56915;52.046;4.854;2022-12-29T15:41:56;11.07;;;2.05;;
69678;SDS011;56915;52.046;4.854;2022-12-29T15:44:31;7.97;;;1.27;;
69678;SDS011;56915;52.046;4.854;2022-12-29T15:47:11;9.20;;;1.20;;
69678;SDS011;56915;52.046;4.854;2022-12-29T15:49:43;6.83;;;0.90;;
69678;SDS011;56915;52.046;4.854;2022-12-29T15:52:17;6.30;;;1.42;;
69678;SDS011;56915;52.046;4.854;2022-12-29T15:54:49;5.20;;;1.02;;
69678;SDS011;56915;52.046;4.854;2022-12-29T15:57:28;8.50;;;1.40;;
69678;SDS011;56915;52.046;4.854;2022-12-29T15:59:59;7.10;;;0.95;;
69678;SDS011;56915;52.046;4.854;2022-12-29T16:02:27;6.47;;;1.03;;
69678;SDS011;56915;52.046;4.854;2022-12-29T16:04:54;6.63;;;0.80;;
69678;SDS011;56915;52.046;4.854;2022-12-29T16:07:51;7.70;;;0.90;;
69678;SDS011;56915;52.046;4.854;2022-12-29T16:10:32;4.40;;;1.23;;
69678;SDS011;56915;52.046;4.854;2022-12-29T16:13:05;6.68;;;1.08;;
69678;SDS011;56915;52.046;4.854;2022-12-29T16:15:45;6.03;;;1.20;;
69678;SDS011;56915;52.046;4.854;2022-12-29T16:18:20;4.78;;;0.98;;
69678;SDS011;56915;52.046;4.854;2022-12-29T16:20:58;6.75;;;1.02;;
69678;SDS011;56915;52.046;4.854;2022-12-29T16:23:27;4.30;;;0.70;;
69678;SDS011;56915;52.046;4.854;2022-12-29T16:25:56;7.15;;;0.80;;
69678;SDS011;56915;52.046;4.854;2022-12-29T16:28:39;4.63;;;0.80;;
69678;SDS011;56915;52.046;4.854;2022-12-29T16:34:19;4.90;;;0.77;;
69678;SDS011;56915;52.046;4.854;2022-12-29T16:36:53;6.80;;;1.10;;
69678;SDS011;56915;52.046;4.854;2022-12-29T16:39:24;4.47;;;1.17;;
69678;SDS011;56915;52.046;4.854;2022-12-29T16:50:26;11.38;;;0.95;;
69678;SDS011;56915;52.046;4.854;2022-12-29T16:52:54;7.70;;;1.02;;
69678;SDS011;56915;52.046;4.854;2022-12-29T16:55:20;5.83;;;0.90;;
69678;SDS011;56915;52.046;4.854;2022-12-29T16:57:48;6.97;;;0.95;;
69678;SDS011;56915;52.046;4.854;2022-12-29T17:00:18;9.20;;;1.40;;
69678;SDS011;56915;52.046;4.854;2022-12-29T17:02:54;6.80;;;1.00;;
69678;SDS011;56915;52.046;4.854;2022-12-29T17:05:26;6.45;;;0.80;;
69678;SDS011;56915;52.046;4.854;2022-12-29T17:07:53;6.83;;;1.00;;
69678;SDS011;56915;52.046;4.854;2022-12-29T17:10:21;5.63;;;0.77;;
69678;SDS011;56915;52.046;4.854;2022-12-29T17:13:07;9.85;;;0.70;;
69678;SDS011;56915;52.046;4.854;2022-12-29T17:15:34;8.85;;;0.70;;
69678;SDS011;56915;52.046;4.854;2022-12-29T17:18:01;4.50;;;0.75;;
69678;SDS011;56915;52.046;4.854;2022-12-29T17:20:35;7.63;;;0.97;;
69678;SDS011;56915;52.046;4.854;2022-12-29T17:23:04;5.20;;;0.90;;
69678;SDS011;56915;52.046;4.854;2022-12-29T17:25:48;6.80;;;1.30;;
69678;SDS011;56915;52.046;4.854;2022-12-29T17:28:25;6.35;;;1.30;;
69678;SDS011;56915;52.046;4.854;2022-12-29T17:31:01;6.28;;;1.08;;
69678;SDS011;56915;52.046;4.854;2022-12-29T17:33:38;6.77;;;1.47;;
69678;SDS011;56915;52.046;4.854;2022-12-29T17:36:08;6.75;;;1.23;;
69678;SDS011;56915;52.046;4.854;2022-12-29T17:38:36;6.18;;;0.90;;
69678;SDS011;56915;52.046;4.854;2022-12-29T17:41:03;9.13;;;1.40;;
69678;SDS011;56915;52.046;4.854;2022-12-29T17:43:34;7.38;;;1.27;;
69678;SDS011;56915;52.046;4.854;2022-12-29T17:46:02;11.93;;;2.57;;
69678;SDS011;56915;52.046;4.854;2022-12-29T17:48:32;8.95;;;1.05;;
69678;SDS011;56915;52.046;4.854;2022-12-29T17:50:59;8.60;;;1.17;;
69678;SDS011;56915;52.046;4.854;2022-12-29T17:53:27;4.97;;;1.33;;
69678;SDS011;56915;52.046;4.854;2022-12-29T17:55:55;6.82;;;1.10;;
69678;SDS011;56915;52.046;4.854;2022-12-29T18:00:57;8.82;;;1.70;;
69678;SDS011;56915;52.046;4.854;2022-12-29T18:05:55;8.52;;;2.13;;